sensor_id;sensor_type;location;lat;lon;timestamp;pressure;altitude;pressure_sealevel;temperature;humidity
10474;BME280;5284;50.446;7.904;2023-06-22T00:03:51;98573.81;;;21.29;100.00
10474;BME280;5284;50.446;7.904;2023-06-22T00:08:54;98576.75;;;21.34;100.00
10474;BME280;5284;50.446;7.904;2023-06-22T00:13:57;98574.06;;;21.34;100.00
10474;BME280;5284;50.446;7.904;2023-06-22T00:19:01;98583.03;;;21.35;100.00
10474;BME280;5284;50.446;7.904;2023-06-22T00:24:05;98585.38;;;21.38;100.00
10474;BME280;5284;50.446;7.904;2023-06-22T00:29:08;98594.31;;;21.38;100.00
10474;BME280;5284;50.446;7.904;2023-06-22T00:34:13;98597.66;;;21.34;100.00
10474;BME280;5284;50.446;7.904;2023-06-22T00:39:16;98612.66;;;21.30;100.00
10474;BME280;5284;50.446;7.904;2023-06-22T00:44:19;98624.91;;;21.26;100.00
10474;BME280;5284;50.446;7.904;2023-06-22T00:49:24;98617.94;;;21.17;100.00
10474;BME280;5284;50.446;7.904;2023-06-22T00:54:27;98608.72;;;21.11;100.00
10474;BME280;5284;50.446;7.904;2023-06-22T00:59:31;98616.78;;;21.05;100.00
10474;BME280;5284;50.446;7.904;2023-06-22T01:04:37;98625.38;;;21.08;100.00
10474;BME280;5284;50.446;7.904;2023-06-22T01:09:47;98625.75;;;21.05;100.00
10474;BME280;5284;50.446;7.904;2023-06-22T01:14:55;98635.56;;;21.06;100.00
10474;BME280;5284;50.446;7.904;2023-06-22T01:20:04;98633.63;;;21.00;100.00
10474;BME280;5284;50.446;7.904;2023-06-22T01:25:13;98619.91;;;21.02;100.00
10474;BME280;5284;50.446;7.904;2023-06-22T01:30:24;98627.41;;;21.00;100.00
10474;BME280;5284;50.446;7.904;2023-06-22T01:35:30;98612.78;;;21.01;100.00
10474;BME280;5284;50.446;7.904;2023-06-22T01:40:36;98613.19;;;20.98;100.00
10474;BME280;5284;50.446;7.904;2023-06-22T01:45:41;98601.88;;;20.94;100.00
10474;BME280;5284;50.446;7.904;2023-06-22T01:50:45;98604.72;;;20.86;100.00
10474;BME280;5284;50.446;7.904;2023-06-22T01:55:48;98606.78;;;20.84;100.00
10474;BME280;5284;50.446;7.904;2023-06-22T02:00:55;98592.59;;;20.82;100.00
10474;BME280;5284;50.446;7.904;2023-06-22T02:06:03;98562.75;;;20.82;100.00
10474;BME280;5284;50.446;7.904;2023-06-22T02:11:08;98557.06;;;20.77;100.00
10474;BME280;5284;50.446;7.904;2023-06-22T02:16:14;98568.84;;;20.70;100.00
10474;BME280;5284;50.446;7.904;2023-06-22T02:21:17;98596.75;;;20.64;100.00
10474;BME280;5284;50.446;7.904;2023-06-22T02:26:20;98610.84;;;20.59;100.00
10474;BME280;5284;50.446;7.904;2023-06-22T02:31:25;98621.88;;;20.58;100.00
10474;BME280;5284;50.446;7.904;2023-06-22T02:36:32;98615.63;;;20.57;100.00
10474;BME280;5284;50.446;7.904;2023-06-22T02:41:35;98596.19;;;20.54;100.00
10474;BME280;5284;50.446;7.904;2023-06-22T02:46:39;98569.69;;;20.49;100.00
10474;BME280;5284;50.446;7.904;2023-06-22T02:51:47;98547.44;;;20.39;100.00
10474;BME280;5284;50.446;7.904;2023-06-22T02:56:53;98549.91;;;20.34;100.00
10474;BME280;5284;50.446;7.904;2023-06-22T03:01:58;98541.16;;;20.18;100.00
10474;BME280;5284;50.446;7.904;2023-06-22T03:07:04;98548.47;;;20.17;100.00
10474;BME280;5284;50.446;7.904;2023-06-22T03:12:08;98550.91;;;20.13;100.00
10474;BME280;5284;50.446;7.904;2023-06-22T03:17:25;98545.50;;;20.13;100.00
10474;BME280;5284;50.446;7.904;2023-06-22T03:22:28;98553.41;;;20.14;100.00
10474;BME280;5284;50.446;7.904;2023-06-22T03:27:31;98565.09;;;20.14;100.00
10474;BME280;5284;50.446;7.904;2023-06-22T03:32:35;98560.63;;;20.07;100.00
10474;BME280;5284;50.446;7.904;2023-06-22T03:37:40;98560.78;;;20.06;100.00
10474;BME280;5284;50.446;7.904;2023-06-22T03:42:43;98555.75;;;20.03;100.00
10474;BME280;5284;50.446;7.904;2023-06-22T03:47:47;98561.34;;;20.15;100.00
10474;BME280;5284;50.446;7.904;2023-06-22T03:52:50;98558.66;;;20.15;100.00
10474;BME280;5284;50.446;7.904;2023-06-22T03:57:54;98546.78;;;20.16;100.00
10474;BME280;5284;50.446;7.904;2023-06-22T04:03:00;98552.63;;;20.20;100.00
10474;BME280;5284;50.446;7.904;2023-06-22T04:08:04;98540.59;;;20.22;100.00
10474;BME280;5284;50.446;7.904;2023-06-22T04:13:07;98550.41;;;20.23;100.00
10474;BME280;5284;50.446;7.904;2023-06-22T04:18:12;98544.81;;;20.25;100.00
10474;BME280;5284;50.446;7.904;2023-06-22T04:23:15;98548.22;;;20.33;100.00
10474;BME280;5284;50.446;7.904;2023-06-22T04:28:18;98561.19;;;20.38;100.00
10474;BME280;5284;50.446;7.904;2023-06-22T04:33:22;98553.25;;;20.36;100.00
10474;BME280;5284;50.446;7.904;2023-06-22T04:38:25;98542.25;;;20.38;100.00
10474;BME280;5284;50.446;7.904;2023-06-22T04:43:28;98547.09;;;20.42;100.00
10474;BME280;5284;50.446;7.904;2023-06-22T04:48:33;98530.63;;;20.44;100.00
10474;BME280;5284;50.446;7.904;2023-06-22T04:53:36;98536.44;;;20.41;100.00
10474;BME280;5284;50.446;7.904;2023-06-22T04:58:39;98539.47;;;20.52;100.00
10474;BME280;5284;50.446;7.904;2023-06-22T05:03:43;98530.00;;;20.63;100.00
10474;BME280;5284;50.446;7.904;2023-06-22T05:08:46;98536.00;;;20.79;100.00
10474;BME280;5284;50.446;7.904;2023-06-22T05:13:49;98526.97;;;20.93;100.00
10474;BME280;5284;50.446;7.904;2023-06-22T05:18:54;98521.41;;;21.01;100.00
10474;BME280;5284;50.446;7.904;2023-06-22T05:23:57;98526.78;;;20.95;100.00
10474;BME280;5284;50.446;7.904;2023-06-22T05:29:03;98517.78;;;21.15;100.00
10474;BME280;5284;50.446;7.904;2023-06-22T05:34:07;98523.56;;;21.40;100.00
10474;BME280;5284;50.446;7.904;2023-06-22T05:39:11;98511.13;;;21.79;100.00
10474;BME280;5284;50.446;7.904;2023-06-22T05:44:15;98515.66;;;21.72;100.00
10474;BME280;5284;50.446;7.904;2023-06-22T05:49:19;98514.34;;;21.95;100.00
10474;BME280;5284;50.446;7.904;2023-06-22T05:54:23;98520.78;;;21.94;100.00
10474;BME280;5284;50.446;7.904;2023-06-22T05:59:26;98524.97;;;21.97;100.00
10474;BME280;5284;50.446;7.904;2023-06-22T06:04:30;98528.41;;;22.18;100.00
10474;BME280;5284;50.446;7.904;2023-06-22T06:09:33;98533.59;;;22.07;100.00
10474;BME280;5284;50.446;7.904;2023-06-22T06:14:37;98522.63;;;21.87;100.00
10474;BME280;5284;50.446;7.904;2023-06-22T06:19:41;98522.16;;;22.18;100.00
10474;BME280;5284;50.446;7.904;2023-06-22T06:24:45;98542.78;;;22.06;100.00
10474;BME280;5284;50.446;7.904;2023-06-22T06:29:49;98545.25;;;22.41;100.00
10474;BME280;5284;50.446;7.904;2023-06-22T06:34:53;98531.94;;;22.79;100.00
10474;BME280;5284;50.446;7.904;2023-06-22T06:39:56;98527.56;;;23.49;100.00
10474;BME280;5284;50.446;7.904;2023-06-22T06:44:59;98524.63;;;23.70;100.00
10474;BME280;5284;50.446;7.904;2023-06-22T06:50:04;98518.53;;;24.31;100.00
10474;BME280;5284;50.446;7.904;2023-06-22T06:55:08;98524.41;;;24.28;100.00
10474;BME280;5284;50.446;7.904;2023-06-22T07:00:14;98514.91;;;24.44;100.00
10474;BME280;5284;50.446;7.904;2023-06-22T07:05:19;98502.25;;;24.87;100.00
10474;BME280;5284;50.446;7.904;2023-06-22T07:10:22;98498.88;;;24.91;100.00
10474;BME280;5284;50.446;7.904;2023-06-22T07:15:25;98508.16;;;24.84;100.00
10474;BME280;5284;50.446;7.904;2023-06-22T07:20:29;98503.50;;;25.15;97.67
10474;BME280;5284;50.446;7.904;2023-06-22T07:25:32;98500.88;;;25.02;99.38
10474;BME280;5284;50.446;7.904;2023-06-22T07:30:36;98503.16;;;24.43;100.00
10474;BME280;5284;50.446;7.904;2023-06-22T07:35:40;98491.00;;;24.77;100.00
10474;BME280;5284;50.446;7.904;2023-06-22T07:40:43;98489.22;;;25.13;98.29
10474;BME280;5284;50.446;7.904;2023-06-22T07:45:48;98478.72;;;24.92;99.25
10474;BME280;5284;50.446;7.904;2023-06-22T07:50:55;98470.59;;;25.52;97.64
10474;BME280;5284;50.446;7.904;2023-06-22T07:55:59;98471.13;;;25.43;97.52
10474;BME280;5284;50.446;7.904;2023-06-22T08:01:03;98467.31;;;25.44;94.13
10474;BME280;5284;50.446;7.904;2023-06-22T08:06:09;98467.81;;;25.77;92.29
10474;BME280;5284;50.446;7.904;2023-06-22T08:11:12;98458.44;;;26.38;90.80
10474;BME280;5284;50.446;7.904;2023-06-22T08:16:15;98449.03;;;26.46;91.81
10474;BME280;5284;50.446;7.904;2023-06-22T08:21:19;98433.34;;;27.05;86.42
10474;BME280;5284;50.446;7.904;2023-06-22T08:26:23;98422.75;;;26.45;86.79
10474;BME280;5284;50.446;7.904;2023-06-22T08:31:26;98423.69;;;26.39;88.39
10474;BME280;5284;50.446;7.904;2023-06-22T08:36:31;98423.88;;;26.55;87.09
10474;BME280;5284;50.446;7.904;2023-06-22T08:41:36;98412.81;;;27.14;83.75
10474;BME280;5284;50.446;7.904;2023-06-22T08:46:39;98410.34;;;27.86;79.60
10474;BME280;5284;50.446;7.904;2023-06-22T08:51:45;98405.13;;;27.50;81.77
10474;BME280;5284;50.446;7.904;2023-06-22T08:56:51;98406.59;;;27.18;83.36
10474;BME280;5284;50.446;7.904;2023-06-22T09:01:54;98399.53;;;26.76;84.56
10474;BME280;5284;50.446;7.904;2023-06-22T09:07:00;98394.78;;;26.95;83.32
10474;BME280;5284;50.446;7.904;2023-06-22T09:12:05;98369.25;;;27.63;81.62
10474;BME280;5284;50.446;7.904;2023-06-22T09:17:08;98377.88;;;27.44;82.21
10474;BME280;5284;50.446;7.904;2023-06-22T09:22:13;98359.09;;;27.64;81.24
10474;BME280;5284;50.446;7.904;2023-06-22T09:27:16;98340.75;;;28.31;79.00
10474;BME280;5284;50.446;7.904;2023-06-22T09:32:19;98338.59;;;28.66;75.80
10474;BME280;5284;50.446;7.904;2023-06-22T09:37:23;98334.84;;;28.39;76.25
10474;BME280;5284;50.446;7.904;2023-06-22T09:42:26;98332.22;;;28.77;75.60
10474;BME280;5284;50.446;7.904;2023-06-22T09:47:30;98318.38;;;29.05;75.94
10474;BME280;5284;50.446;7.904;2023-06-22T09:52:35;98300.75;;;28.68;77.84
10474;BME280;5284;50.446;7.904;2023-06-22T09:57:41;98304.66;;;28.89;78.12
10474;BME280;5284;50.446;7.904;2023-06-22T10:02:44;98298.56;;;29.03;73.96
10474;BME280;5284;50.446;7.904;2023-06-22T10:07:50;98290.50;;;28.15;77.64
10474;BME280;5284;50.446;7.904;2023-06-22T10:12:55;98279.69;;;28.24;77.59
10474;BME280;5284;50.446;7.904;2023-06-22T10:17:59;98275.75;;;28.04;77.91
10474;BME280;5284;50.446;7.904;2023-06-22T10:23:03;98271.88;;;27.61;80.05
10474;BME280;5284;50.446;7.904;2023-06-22T10:28:08;98261.59;;;27.96;79.36
10474;BME280;5284;50.446;7.904;2023-06-22T10:33:14;98240.28;;;27.70;80.30
10474;BME280;5284;50.446;7.904;2023-06-22T10:38:18;98258.97;;;27.73;80.71
10474;BME280;5284;50.446;7.904;2023-06-22T10:43:21;98300.81;;;27.29;82.23
10474;BME280;5284;50.446;7.904;2023-06-22T10:48:26;98316.81;;;27.71;79.03
10474;BME280;5284;50.446;7.904;2023-06-22T10:53:31;98319.81;;;28.42;77.99
10474;BME280;5284;50.446;7.904;2023-06-22T10:58:34;98315.19;;;29.51;72.17
10474;BME280;5284;50.446;7.904;2023-06-22T11:03:37;98300.72;;;30.03;66.29
10474;BME280;5284;50.446;7.904;2023-06-22T11:08:43;98276.47;;;31.00;63.81
10474;BME280;5284;50.446;7.904;2023-06-22T11:14:05;98254.06;;;30.91;61.72
10474;BME280;5284;50.446;7.904;2023-06-22T11:19:08;98241.63;;;30.47;62.88
10474;BME280;5284;50.446;7.904;2023-06-22T11:24:13;98247.72;;;31.32;60.36
10474;BME280;5284;50.446;7.904;2023-06-22T11:29:16;98239.19;;;30.92;63.60
10474;BME280;5284;50.446;7.904;2023-06-22T11:34:37;98248.50;;;31.23;61.86
10474;BME280;5284;50.446;7.904;2023-06-22T11:39:41;98248.56;;;31.43;58.43
10474;BME280;5284;50.446;7.904;2023-06-22T11:44:59;98247.66;;;31.93;57.84
10474;BME280;5284;50.446;7.904;2023-06-22T11:50:02;98237.38;;;31.64;59.69
10474;BME280;5284;50.446;7.904;2023-06-22T11:55:08;98248.84;;;32.37;56.78
10474;BME280;5284;50.446;7.904;2023-06-22T12:00:12;98231.44;;;32.52;56.54
10474;BME280;5284;50.446;7.904;2023-06-22T12:05:19;98226.97;;;32.66;56.30
10474;BME280;5284;50.446;7.904;2023-06-22T12:10:25;98207.69;;;32.36;54.40
10474;BME280;5284;50.446;7.904;2023-06-22T12:15:30;98193.88;;;32.46;54.18
10474;BME280;5284;50.446;7.904;2023-06-22T12:20:33;98180.28;;;32.74;54.27
10474;BME280;5284;50.446;7.904;2023-06-22T12:25:40;98162.56;;;33.97;50.41
10474;BME280;5284;50.446;7.904;2023-06-22T12:30:43;98168.41;;;34.29;51.14
10474;BME280;5284;50.446;7.904;2023-06-22T12:35:46;98149.25;;;34.32;48.84
10474;BME280;5284;50.446;7.904;2023-06-22T12:40:52;98137.63;;;35.71;48.29
10474;BME280;5284;50.446;7.904;2023-06-22T12:45:55;98134.81;;;34.35;49.42
10474;BME280;5284;50.446;7.904;2023-06-22T12:50:58;98125.00;;;33.86;50.80
10474;BME280;5284;50.446;7.904;2023-06-22T12:56:03;98131.94;;;34.74;50.13
10474;BME280;5284;50.446;7.904;2023-06-22T13:01:06;98121.25;;;35.09;47.79
10474;BME280;5284;50.446;7.904;2023-06-22T13:06:09;98113.16;;;36.10;46.69
10474;BME280;5284;50.446;7.904;2023-06-22T13:11:14;98085.72;;;35.11;48.26
10474;BME280;5284;50.446;7.904;2023-06-22T13:16:17;98077.84;;;36.69;44.12
10474;BME280;5284;50.446;7.904;2023-06-22T13:21:20;98050.28;;;34.61;49.10
10474;BME280;5284;50.446;7.904;2023-06-22T13:26:24;98039.91;;;33.63;49.42
10474;BME280;5284;50.446;7.904;2023-06-22T13:31:27;98031.53;;;31.93;52.77
10474;BME280;5284;50.446;7.904;2023-06-22T13:36:30;98014.44;;;31.56;55.17
10474;BME280;5284;50.446;7.904;2023-06-22T13:41:34;97983.81;;;31.77;55.47
10474;BME280;5284;50.446;7.904;2023-06-22T13:46:38;98001.22;;;31.33;55.30
10474;BME280;5284;50.446;7.904;2023-06-22T13:51:40;97995.63;;;31.08;58.71
10474;BME280;5284;50.446;7.904;2023-06-22T13:56:45;97954.72;;;30.55;61.01
10474;BME280;5284;50.446;7.904;2023-06-22T14:01:48;97910.97;;;30.69;60.37
10474;BME280;5284;50.446;7.904;2023-06-22T14:06:51;97925.31;;;29.99;63.57
10474;BME280;5284;50.446;7.904;2023-06-22T14:12:03;97916.00;;;29.59;66.53
10474;BME280;5284;50.446;7.904;2023-06-22T14:17:05;97897.00;;;29.53;64.40
10474;BME280;5284;50.446;7.904;2023-06-22T14:22:08;97917.56;;;29.09;68.46
10474;BME280;5284;50.446;7.904;2023-06-22T14:27:13;97916.38;;;28.73;73.85
10474;BME280;5284;50.446;7.904;2023-06-22T14:32:16;97980.78;;;27.26;92.44
10474;BME280;5284;50.446;7.904;2023-06-22T14:37:19;97932.28;;;25.70;100.00
10474;BME280;5284;50.446;7.904;2023-06-22T14:42:24;97964.38;;;24.77;100.00
10474;BME280;5284;50.446;7.904;2023-06-22T14:47:28;97961.53;;;24.72;100.00
10474;BME280;5284;50.446;7.904;2023-06-22T14:52:31;97996.69;;;24.50;100.00
10474;BME280;5284;50.446;7.904;2023-06-22T14:57:35;98118.91;;;22.82;100.00
10474;BME280;5284;50.446;7.904;2023-06-22T15:02:38;98012.75;;;21.38;100.00
10474;BME280;5284;50.446;7.904;2023-06-22T15:07:41;98022.34;;;21.47;100.00
10474;BME280;5284;50.446;7.904;2023-06-22T15:12:45;98117.34;;;21.34;100.00
10474;BME280;5284;50.446;7.904;2023-06-22T15:17:48;98114.59;;;21.21;100.00
10474;BME280;5284;50.446;7.904;2023-06-22T15:22:51;98085.59;;;21.02;100.00
10474;BME280;5284;50.446;7.904;2023-06-22T15:27:55;98091.19;;;20.87;100.00
10474;BME280;5284;50.446;7.904;2023-06-22T15:32:59;98086.00;;;20.92;100.00
10474;BME280;5284;50.446;7.904;2023-06-22T15:38:03;98072.44;;;21.05;100.00
10474;BME280;5284;50.446;7.904;2023-06-22T15:43:09;98056.41;;;21.10;100.00
10474;BME280;5284;50.446;7.904;2023-06-22T15:48:12;98069.72;;;21.05;100.00
10474;BME280;5284;50.446;7.904;2023-06-22T15:53:15;98057.19;;;21.04;100.00
10474;BME280;5284;50.446;7.904;2023-06-22T15:58:20;98056.16;;;21.05;100.00
10474;BME280;5284;50.446;7.904;2023-06-22T16:03:22;98082.44;;;20.98;100.00
10474;BME280;5284;50.446;7.904;2023-06-22T16:08:25;98060.75;;;20.98;100.00
10474;BME280;5284;50.446;7.904;2023-06-22T16:13:33;98009.44;;;21.10;100.00
10474;BME280;5284;50.446;7.904;2023-06-22T16:18:36;98001.09;;;21.24;100.00
10474;BME280;5284;50.446;7.904;2023-06-22T16:23:39;97969.97;;;21.46;100.00
10474;BME280;5284;50.446;7.904;2023-06-22T16:28:43;97942.09;;;21.76;100.00
10474;BME280;5284;50.446;7.904;2023-06-22T16:33:46;97924.41;;;22.05;100.00
10474;BME280;5284;50.446;7.904;2023-06-22T16:38:51;97924.41;;;22.49;100.00
10474;BME280;5284;50.446;7.904;2023-06-22T16:43:55;97945.38;;;22.66;100.00
10474;BME280;5284;50.446;7.904;2023-06-22T16:48:58;97965.66;;;22.95;100.00
10474;BME280;5284;50.446;7.904;2023-06-22T16:54:00;98004.06;;;23.11;100.00
10474;BME280;5284;50.446;7.904;2023-06-22T16:59:06;98009.53;;;23.53;100.00
10474;BME280;5284;50.446;7.904;2023-06-22T17:04:10;98009.63;;;23.65;100.00
10474;BME280;5284;50.446;7.904;2023-06-22T17:09:14;98010.56;;;23.95;100.00
10474;BME280;5284;50.446;7.904;2023-06-22T17:14:19;98001.81;;;23.68;100.00
10474;BME280;5284;50.446;7.904;2023-06-22T17:19:22;97992.28;;;24.31;100.00
10474;BME280;5284;50.446;7.904;2023-06-22T17:24:26;97987.03;;;25.29;100.00
10474;BME280;5284;50.446;7.904;2023-06-22T17:29:31;97975.31;;;25.40;100.00
10474;BME280;5284;50.446;7.904;2023-06-22T17:34:35;97984.00;;;25.08;100.00
10474;BME280;5284;50.446;7.904;2023-06-22T17:39:38;97969.22;;;24.63;100.00
10474;BME280;5284;50.446;7.904;2023-06-22T17:44:44;97980.53;;;24.90;100.00
10474;BME280;5284;50.446;7.904;2023-06-22T17:49:47;97968.09;;;24.93;100.00
10474;BME280;5284;50.446;7.904;2023-06-22T17:54:50;97961.31;;;24.26;100.00
10474;BME280;5284;50.446;7.904;2023-06-22T18:00:14;97948.19;;;24.34;100.00
10474;BME280;5284;50.446;7.904;2023-06-22T18:05:27;97944.50;;;23.81;100.00
10474;BME280;5284;50.446;7.904;2023-06-22T18:10:33;97942.63;;;23.39;100.00
10474;BME280;5284;50.446;7.904;2023-06-22T18:15:37;97922.06;;;23.43;100.00
10474;BME280;5284;50.446;7.904;2023-06-22T18:20:40;97921.91;;;23.74;100.00
10474;BME280;5284;50.446;7.904;2023-06-22T18:25:45;97931.91;;;23.80;100.00
10474;BME280;5284;50.446;7.904;2023-06-22T18:30:50;97931.63;;;23.52;100.00
10474;BME280;5284;50.446;7.904;2023-06-22T18:35:53;97937.56;;;23.25;100.00
10474;BME280;5284;50.446;7.904;2023-06-22T18:40:56;97933.91;;;22.89;100.00
10474;BME280;5284;50.446;7.904;2023-06-22T18:46:32;97937.22;;;22.66;100.00
10474;BME280;5284;50.446;7.904;2023-06-22T18:51:57;97917.56;;;22.33;100.00
10474;BME280;5284;50.446;7.904;2023-06-22T18:57:12;97915.06;;;22.32;100.00
10474;BME280;5284;50.446;7.904;2023-06-22T19:02:34;97939.28;;;22.02;100.00
10474;BME280;5284;50.446;7.904;2023-06-22T19:07:57;97946.84;;;21.94;100.00
10474;BME280;5284;50.446;7.904;2023-06-22T19:18:39;97950.44;;;21.75;100.00
10474;BME280;5284;50.446;7.904;2023-06-22T19:23:43;97962.59;;;21.73;100.00
10474;BME280;5284;50.446;7.904;2023-06-22T19:28:47;97954.22;;;21.74;100.00
10474;BME280;5284;50.446;7.904;2023-06-22T19:33:54;97948.59;;;21.69;100.00
10474;BME280;5284;50.446;7.904;2023-06-22T19:39:02;97935.44;;;21.60;100.00
10474;BME280;5284;50.446;7.904;2023-06-22T19:44:05;97944.25;;;21.62;100.00
10474;BME280;5284;50.446;7.904;2023-06-22T19:49:09;97944.88;;;21.57;100.00
10474;BME280;5284;50.446;7.904;2023-06-22T19:54:12;97950.97;;;21.46;100.00
10474;BME280;5284;50.446;7.904;2023-06-22T19:59:22;97946.97;;;21.42;100.00
10474;BME280;5284;50.446;7.904;2023-06-22T20:04:27;97928.44;;;21.33;100.00
10474;BME280;5284;50.446;7.904;2023-06-22T20:09:29;97915.13;;;21.18;100.00
10474;BME280;5284;50.446;7.904;2023-06-22T20:14:34;97930.16;;;21.14;100.00
10474;BME280;5284;50.446;7.904;2023-06-22T20:19:38;97936.44;;;21.02;100.00
10474;BME280;5284;50.446;7.904;2023-06-22T20:24:44;97942.06;;;21.00;100.00
10474;BME280;5284;50.446;7.904;2023-06-22T20:29:48;97943.75;;;20.88;100.00
10474;BME280;5284;50.446;7.904;2023-06-22T20:34:52;97946.81;;;20.79;100.00
10474;BME280;5284;50.446;7.904;2023-06-22T20:39:55;97958.94;;;20.70;100.00
10474;BME280;5284;50.446;7.904;2023-06-22T20:44:58;97981.41;;;20.51;100.00
10474;BME280;5284;50.446;7.904;2023-06-22T20:50:02;98012.00;;;20.25;100.00
10474;BME280;5284;50.446;7.904;2023-06-22T20:55:06;98026.94;;;20.09;100.00
10474;BME280;5284;50.446;7.904;2023-06-22T21:00:10;98031.84;;;19.92;100.00
10474;BME280;5284;50.446;7.904;2023-06-22T21:05:15;98045.09;;;19.81;100.00
10474;BME280;5284;50.446;7.904;2023-06-22T21:10:17;98053.09;;;19.61;100.00
10474;BME280;5284;50.446;7.904;2023-06-22T21:15:20;98059.25;;;19.49;100.00
10474;BME280;5284;50.446;7.904;2023-06-22T21:20:25;98075.44;;;19.42;100.00
10474;BME280;5284;50.446;7.904;2023-06-22T21:25:27;98093.44;;;19.29;100.00
10474;BME280;5284;50.446;7.904;2023-06-22T21:30:31;98101.97;;;19.11;100.00
10474;BME280;5284;50.446;7.904;2023-06-22T21:35:35;98110.03;;;19.05;100.00
10474;BME280;5284;50.446;7.904;2023-06-22T21:40:38;98131.22;;;19.01;100.00
10474;BME280;5284;50.446;7.904;2023-06-22T21:45:42;98150.50;;;18.77;100.00
10474;BME280;5284;50.446;7.904;2023-06-22T21:50:46;98163.13;;;18.56;100.00
10474;BME280;5284;50.446;7.904;2023-06-22T21:55:49;98171.34;;;18.19;100.00
10474;BME280;5284;50.446;7.904;2023-06-22T22:00:53;98176.91;;;18.03;100.00
10474;BME280;5284;50.446;7.904;2023-06-22T22:05:58;98168.25;;;17.93;100.00
10474;BME280;5284;50.446;7.904;2023-06-22T22:11:01;98168.06;;;17.80;100.00
10474;BME280;5284;50.446;7.904;2023-06-22T22:16:05;98172.16;;;17.76;100.00
10474;BME280;5284;50.446;7.904;2023-06-22T22:21:09;98177.63;;;17.68;100.00
10474;BME280;5284;50.446;7.904;2023-06-22T22:26:12;98180.22;;;17.62;100.00
10474;BME280;5284;50.446;7.904;2023-06-22T22:31:15;98196.94;;;17.57;100.00
10474;BME280;5284;50.446;7.904;2023-06-22T22:36:20;98196.28;;;17.55;100.00
10474;BME280;5284;50.446;7.904;2023-06-22T22:41:22;98208.19;;;17.46;100.00
10474;BME280;5284;50.446;7.904;2023-06-22T22:46:25;98208.63;;;17.35;100.00
10474;BME280;5284;50.446;7.904;2023-06-22T22:51:30;98247.09;;;17.21;100.00
10474;BME280;5284;50.446;7.904;2023-06-22T22:56:33;98280.72;;;17.03;100.00
10474;BME280;5284;50.446;7.904;2023-06-22T23:01:35;98289.41;;;16.83;100.00
10474;BME280;5284;50.446;7.904;2023-06-22T23:06:40;98295.66;;;16.75;100.00
10474;BME280;5284;50.446;7.904;2023-06-22T23:11:42;98299.94;;;16.70;100.00
10474;BME280;5284;50.446;7.904;2023-06-22T23:16:45;98295.72;;;16.67;100.00
10474;BME280;5284;50.446;7.904;2023-06-22T23:21:50;98303.63;;;16.61;100.00
10474;BME280;5284;50.446;7.904;2023-06-22T23:26:53;98304.19;;;16.56;100.00
10474;BME280;5284;50.446;7.904;2023-06-22T23:31:58;98308.41;;;16.51;100.00
10474;BME280;5284;50.446;7.904;2023-06-22T23:37:02;98318.00;;;16.37;100.00
10474;BME280;5284;50.446;7.904;2023-06-22T23:42:06;98311.44;;;16.24;100.00
10474;BME280;5284;50.446;7.904;2023-06-22T23:47:12;98312.31;;;16.08;100.00
10474;BME280;5284;50.446;7.904;2023-06-22T23:52:16;98305.78;;;15.95;100.00
10474;BME280;5284;50.446;7.904;2023-06-22T23:57:19;98291.84;;;15.83;100.00
